sensor_id;sensor_type;location;lat;lon;timestamp;P1;durP1;ratioP1;P2;durP2;ratioP2
80313;SDS011;69628;47.516;18.828;2024-02-26T00:00:43;21.25;;;10.13;;
80313;SDS011;69628;47.516;18.828;2024-02-26T00:01:46;18.77;;;9.05;;
80313;SDS011;69628;47.516;18.828;2024-02-26T00:02:46;22.60;;;9.98;;
80313;SDS011;69628;47.516;18.828;2024-02-26T00:03:47;22.58;;;9.95;;
80313;SDS011;69628;47.516;18.828;2024-02-26T00:04:47;22.00;;;10.52;;
80313;SDS011;69628;47.516;18.828;2024-02-26T00:05:48;20.45;;;10.85;;
80313;SDS011;69628;47.516;18.828;2024-02-26T00:06:48;27.58;;;10.20;;
80313;SDS011;69628;47.516;18.828;2024-02-26T00:07:51;19.73;;;10.82;;
80313;SDS011;69628;47.516;18.828;2024-02-26T00:08:51;23.52;;;11.27;;
80313;SDS011;69628;47.516;18.828;2024-02-26T00:09:52;16.38;;;8.93;;
80313;SDS011;69628;47.516;18.828;2024-02-26T00:10:52;18.65;;;9.77;;
80313;SDS011;69628;47.516;18.828;2024-02-26T00:11:52;17.65;;;9.73;;
80313;SDS011;69628;47.516;18.828;2024-02-26T00:12:54;24.52;;;9.80;;
80313;SDS011;69628;47.516;18.828;2024-02-26T00:13:54;20.67;;;10.27;;
80313;SDS011;69628;47.516;18.828;2024-02-26T00:14:54;19.33;;;9.93;;
80313;SDS011;69628;47.516;18.828;2024-02-26T00:15:57;14.05;;;9.07;;
80313;SDS011;69628;47.516;18.828;2024-02-26T00:16:58;26.15;;;9.65;;
80313;SDS011;69628;47.516;18.828;2024-02-26T00:17:58;18.33;;;10.15;;
80313;SDS011;69628;47.516;18.828;2024-02-26T00:18:59;21.10;;;10.45;;
80313;SDS011;69628;47.516;18.828;2024-02-26T00:20:00;22.40;;;9.52;;
80313;SDS011;69628;47.516;18.828;2024-02-26T00:21:04;21.20;;;9.23;;
80313;SDS011;69628;47.516;18.828;2024-02-26T00:22:06;25.73;;;11.18;;
80313;SDS011;69628;47.516;18.828;2024-02-26T00:23:06;19.08;;;9.98;;
80313;SDS011;69628;47.516;18.828;2024-02-26T00:24:06;23.55;;;11.73;;
80313;SDS011;69628;47.516;18.828;2024-02-26T00:25:07;22.90;;;11.95;;
80313;SDS011;69628;47.516;18.828;2024-02-26T00:26:07;24.15;;;10.13;;
80313;SDS011;69628;47.516;18.828;2024-02-26T00:27:09;24.55;;;10.23;;
80313;SDS011;69628;47.516;18.828;2024-02-26T00:28:10;17.58;;;9.52;;
80313;SDS011;69628;47.516;18.828;2024-02-26T00:29:10;18.10;;;10.02;;
80313;SDS011;69628;47.516;18.828;2024-02-26T00:30:11;22.65;;;10.02;;
80313;SDS011;69628;47.516;18.828;2024-02-26T00:31:12;19.67;;;8.65;;
80313;SDS011;69628;47.516;18.828;2024-02-26T00:32:12;17.05;;;9.57;;
80313;SDS011;69628;47.516;18.828;2024-02-26T00:33:14;23.17;;;9.50;;
80313;SDS011;69628;47.516;18.828;2024-02-26T00:34:16;20.20;;;9.40;;
80313;SDS011;69628;47.516;18.828;2024-02-26T00:35:17;17.33;;;8.68;;
80313;SDS011;69628;47.516;18.828;2024-02-26T00:36:20;17.40;;;9.43;;
80313;SDS011;69628;47.516;18.828;2024-02-26T00:37:20;17.40;;;8.60;;
80313;SDS011;69628;47.516;18.828;2024-02-26T00:38:21;19.88;;;9.90;;
80313;SDS011;69628;47.516;18.828;2024-02-26T00:39:21;18.00;;;8.73;;
80313;SDS011;69628;47.516;18.828;2024-02-26T00:40:22;13.82;;;8.40;;
80313;SDS011;69628;47.516;18.828;2024-02-26T00:41:22;18.92;;;10.00;;
80313;SDS011;69628;47.516;18.828;2024-02-26T00:42:23;20.10;;;10.07;;
80313;SDS011;69628;47.516;18.828;2024-02-26T00:43:23;15.93;;;8.95;;
80313;SDS011;69628;47.516;18.828;2024-02-26T00:44:24;17.27;;;8.25;;
80313;SDS011;69628;47.516;18.828;2024-02-26T00:45:24;16.55;;;8.57;;
80313;SDS011;69628;47.516;18.828;2024-02-26T00:46:24;18.27;;;8.55;;
80313;SDS011;69628;47.516;18.828;2024-02-26T00:47:25;15.35;;;8.20;;
80313;SDS011;69628;47.516;18.828;2024-02-26T00:48:25;17.90;;;8.40;;
80313;SDS011;69628;47.516;18.828;2024-02-26T00:49:26;19.98;;;9.25;;
80313;SDS011;69628;47.516;18.828;2024-02-26T00:50:26;19.42;;;9.25;;
80313;SDS011;69628;47.516;18.828;2024-02-26T00:51:27;18.65;;;9.60;;
80313;SDS011;69628;47.516;18.828;2024-02-26T00:52:27;28.13;;;9.10;;
80313;SDS011;69628;47.516;18.828;2024-02-26T00:53:27;14.90;;;8.15;;
80313;SDS011;69628;47.516;18.828;2024-02-26T00:54:29;17.73;;;9.68;;
80313;SDS011;69628;47.516;18.828;2024-02-26T00:55:30;17.85;;;9.55;;
80313;SDS011;69628;47.516;18.828;2024-02-26T00:56:30;18.92;;;9.57;;
80313;SDS011;69628;47.516;18.828;2024-02-26T00:57:31;16.25;;;8.93;;
80313;SDS011;69628;47.516;18.828;2024-02-26T00:58:31;15.85;;;8.70;;
80313;SDS011;69628;47.516;18.828;2024-02-26T00:59:32;17.10;;;8.65;;
80313;SDS011;69628;47.516;18.828;2024-02-26T01:00:33;15.55;;;8.75;;
80313;SDS011;69628;47.516;18.828;2024-02-26T01:01:33;16.50;;;8.82;;
80313;SDS011;69628;47.516;18.828;2024-02-26T01:02:33;20.73;;;8.88;;
80313;SDS011;69628;47.516;18.828;2024-02-26T01:03:34;21.80;;;9.00;;
80313;SDS011;69628;47.516;18.828;2024-02-26T01:04:34;19.83;;;8.45;;
80313;SDS011;69628;47.516;18.828;2024-02-26T01:05:35;15.20;;;7.57;;
80313;SDS011;69628;47.516;18.828;2024-02-26T01:06:36;19.50;;;8.90;;
80313;SDS011;69628;47.516;18.828;2024-02-26T01:07:36;18.48;;;8.98;;
80313;SDS011;69628;47.516;18.828;2024-02-26T01:08:37;20.25;;;8.88;;
80313;SDS011;69628;47.516;18.828;2024-02-26T01:09:37;16.50;;;8.48;;
80313;SDS011;69628;47.516;18.828;2024-02-26T01:10:38;15.00;;;7.65;;
80313;SDS011;69628;47.516;18.828;2024-02-26T01:11:38;15.90;;;8.38;;
80313;SDS011;69628;47.516;18.828;2024-02-26T01:12:38;15.43;;;8.95;;
80313;SDS011;69628;47.516;18.828;2024-02-26T01:13:39;17.85;;;8.25;;
80313;SDS011;69628;47.516;18.828;2024-02-26T01:14:39;17.40;;;8.20;;
80313;SDS011;69628;47.516;18.828;2024-02-26T01:15:39;14.23;;;8.40;;
80313;SDS011;69628;47.516;18.828;2024-02-26T01:16:40;14.98;;;6.90;;
80313;SDS011;69628;47.516;18.828;2024-02-26T01:17:40;18.50;;;9.50;;
80313;SDS011;69628;47.516;18.828;2024-02-26T01:18:41;14.98;;;7.63;;
80313;SDS011;69628;47.516;18.828;2024-02-26T01:19:41;16.70;;;8.93;;
80313;SDS011;69628;47.516;18.828;2024-02-26T01:20:42;17.92;;;7.97;;
80313;SDS011;69628;47.516;18.828;2024-02-26T01:21:42;12.68;;;7.38;;
80313;SDS011;69628;47.516;18.828;2024-02-26T01:22:43;14.02;;;7.68;;
80313;SDS011;69628;47.516;18.828;2024-02-26T01:23:43;15.00;;;6.90;;
80313;SDS011;69628;47.516;18.828;2024-02-26T01:24:44;13.90;;;7.55;;
80313;SDS011;69628;47.516;18.828;2024-02-26T01:25:44;18.40;;;8.55;;
80313;SDS011;69628;47.516;18.828;2024-02-26T01:26:45;15.43;;;7.53;;
80313;SDS011;69628;47.516;18.828;2024-02-26T01:27:45;18.95;;;8.20;;
80313;SDS011;69628;47.516;18.828;2024-02-26T01:28:45;17.77;;;7.75;;
80313;SDS011;69628;47.516;18.828;2024-02-26T01:29:46;12.73;;;6.78;;
80313;SDS011;69628;47.516;18.828;2024-02-26T01:30:46;14.63;;;6.75;;
80313;SDS011;69628;47.516;18.828;2024-02-26T01:31:47;11.15;;;6.32;;
80313;SDS011;69628;47.516;18.828;2024-02-26T01:32:47;13.20;;;6.35;;
80313;SDS011;69628;47.516;18.828;2024-02-26T01:33:47;13.82;;;7.38;;
80313;SDS011;69628;47.516;18.828;2024-02-26T01:34:48;12.10;;;7.03;;
80313;SDS011;69628;47.516;18.828;2024-02-26T01:35:48;14.88;;;6.60;;
80313;SDS011;69628;47.516;18.828;2024-02-26T01:36:49;15.85;;;7.43;;
80313;SDS011;69628;47.516;18.828;2024-02-26T01:37:49;14.10;;;6.75;;
80313;SDS011;69628;47.516;18.828;2024-02-26T01:38:49;9.02;;;5.85;;
80313;SDS011;69628;47.516;18.828;2024-02-26T01:39:50;10.93;;;5.90;;
80313;SDS011;69628;47.516;18.828;2024-02-26T01:40:50;11.85;;;5.85;;
80313;SDS011;69628;47.516;18.828;2024-02-26T01:41:50;12.55;;;6.55;;
80313;SDS011;69628;47.516;18.828;2024-02-26T01:42:52;13.25;;;5.75;;
80313;SDS011;69628;47.516;18.828;2024-02-26T01:43:52;11.55;;;6.50;;
80313;SDS011;69628;47.516;18.828;2024-02-26T01:44:53;10.82;;;5.93;;
80313;SDS011;69628;47.516;18.828;2024-02-26T01:45:53;14.93;;;6.95;;
80313;SDS011;69628;47.516;18.828;2024-02-26T01:46:54;13.85;;;7.75;;
80313;SDS011;69628;47.516;18.828;2024-02-26T01:47:55;12.43;;;5.88;;
80313;SDS011;69628;47.516;18.828;2024-02-26T01:48:56;11.85;;;6.53;;
80313;SDS011;69628;47.516;18.828;2024-02-26T01:49:57;13.82;;;7.07;;
80313;SDS011;69628;47.516;18.828;2024-02-26T01:50:58;11.07;;;6.18;;
80313;SDS011;69628;47.516;18.828;2024-02-26T01:51:58;13.68;;;5.95;;
80313;SDS011;69628;47.516;18.828;2024-02-26T01:52:59;14.38;;;7.00;;
80313;SDS011;69628;47.516;18.828;2024-02-26T01:53:59;13.57;;;6.63;;
80313;SDS011;69628;47.516;18.828;2024-02-26T01:55:01;15.68;;;7.07;;
80313;SDS011;69628;47.516;18.828;2024-02-26T01:56:02;17.55;;;7.75;;
80313;SDS011;69628;47.516;18.828;2024-02-26T01:57:03;15.10;;;7.07;;
80313;SDS011;69628;47.516;18.828;2024-02-26T01:58:05;13.85;;;6.97;;
80313;SDS011;69628;47.516;18.828;2024-02-26T01:59:05;11.90;;;6.70;;
80313;SDS011;69628;47.516;18.828;2024-02-26T02:00:08;13.80;;;7.72;;
80313;SDS011;69628;47.516;18.828;2024-02-26T02:01:09;14.15;;;7.05;;
80313;SDS011;69628;47.516;18.828;2024-02-26T02:02:09;14.25;;;8.13;;
80313;SDS011;69628;47.516;18.828;2024-02-26T02:03:11;15.65;;;7.80;;
80313;SDS011;69628;47.516;18.828;2024-02-26T02:04:11;14.02;;;7.07;;
80313;SDS011;69628;47.516;18.828;2024-02-26T02:05:12;16.02;;;8.18;;
80313;SDS011;69628;47.516;18.828;2024-02-26T02:06:12;13.45;;;7.57;;
80313;SDS011;69628;47.516;18.828;2024-02-26T02:07:13;16.92;;;8.05;;
80313;SDS011;69628;47.516;18.828;2024-02-26T02:08:14;14.80;;;7.70;;
80313;SDS011;69628;47.516;18.828;2024-02-26T02:09:14;14.10;;;7.90;;
80313;SDS011;69628;47.516;18.828;2024-02-26T02:10:15;15.57;;;6.80;;
80313;SDS011;69628;47.516;18.828;2024-02-26T02:11:16;16.73;;;7.97;;
80313;SDS011;69628;47.516;18.828;2024-02-26T02:12:17;16.33;;;8.10;;
80313;SDS011;69628;47.516;18.828;2024-02-26T02:13:18;15.00;;;7.00;;
80313;SDS011;69628;47.516;18.828;2024-02-26T02:14:18;13.05;;;7.82;;
80313;SDS011;69628;47.516;18.828;2024-02-26T02:15:19;20.15;;;8.57;;
80313;SDS011;69628;47.516;18.828;2024-02-26T02:16:20;16.52;;;8.93;;
80313;SDS011;69628;47.516;18.828;2024-02-26T02:17:20;14.02;;;8.15;;
80313;SDS011;69628;47.516;18.828;2024-02-26T02:18:20;20.65;;;8.75;;
80313;SDS011;69628;47.516;18.828;2024-02-26T02:19:21;19.73;;;8.55;;
80313;SDS011;69628;47.516;18.828;2024-02-26T02:20:34;15.75;;;8.65;;
80313;SDS011;69628;47.516;18.828;2024-02-26T02:21:34;16.45;;;8.30;;
80313;SDS011;69628;47.516;18.828;2024-02-26T02:22:35;15.02;;;8.32;;
80313;SDS011;69628;47.516;18.828;2024-02-26T02:23:35;17.25;;;9.45;;
80313;SDS011;69628;47.516;18.828;2024-02-26T02:24:35;20.10;;;9.82;;
80313;SDS011;69628;47.516;18.828;2024-02-26T02:25:36;16.27;;;8.30;;
80313;SDS011;69628;47.516;18.828;2024-02-26T02:26:36;21.55;;;10.32;;
80313;SDS011;69628;47.516;18.828;2024-02-26T02:27:36;19.45;;;9.75;;
80313;SDS011;69628;47.516;18.828;2024-02-26T02:28:37;17.40;;;8.73;;
80313;SDS011;69628;47.516;18.828;2024-02-26T02:29:37;18.38;;;9.23;;
80313;SDS011;69628;47.516;18.828;2024-02-26T02:30:38;20.88;;;8.23;;
80313;SDS011;69628;47.516;18.828;2024-02-26T02:31:39;16.70;;;8.88;;
80313;SDS011;69628;47.516;18.828;2024-02-26T02:32:39;20.65;;;9.40;;
80313;SDS011;69628;47.516;18.828;2024-02-26T02:33:41;20.15;;;10.05;;
80313;SDS011;69628;47.516;18.828;2024-02-26T02:34:42;18.00;;;9.32;;
80313;SDS011;69628;47.516;18.828;2024-02-26T02:35:43;23.02;;;10.25;;
80313;SDS011;69628;47.516;18.828;2024-02-26T02:36:52;18.50;;;8.23;;
80313;SDS011;69628;47.516;18.828;2024-02-26T02:37:53;15.43;;;7.68;;
80313;SDS011;69628;47.516;18.828;2024-02-26T02:38:55;17.58;;;8.45;;
80313;SDS011;69628;47.516;18.828;2024-02-26T02:39:56;22.60;;;9.25;;
80313;SDS011;69628;47.516;18.828;2024-02-26T02:40:57;18.05;;;8.85;;
80313;SDS011;69628;47.516;18.828;2024-02-26T02:41:58;21.67;;;9.68;;
80313;SDS011;69628;47.516;18.828;2024-02-26T02:42:58;24.08;;;8.95;;
80313;SDS011;69628;47.516;18.828;2024-02-26T02:43:59;17.02;;;9.30;;
80313;SDS011;69628;47.516;18.828;2024-02-26T02:45:00;18.27;;;8.82;;
80313;SDS011;69628;47.516;18.828;2024-02-26T02:46:00;15.25;;;8.02;;
80313;SDS011;69628;47.516;18.828;2024-02-26T02:47:01;21.90;;;9.60;;
80313;SDS011;69628;47.516;18.828;2024-02-26T02:48:01;17.70;;;7.97;;
80313;SDS011;69628;47.516;18.828;2024-02-26T02:49:01;19.65;;;8.40;;
80313;SDS011;69628;47.516;18.828;2024-02-26T02:50:02;21.50;;;8.75;;
80313;SDS011;69628;47.516;18.828;2024-02-26T02:51:02;20.65;;;8.88;;
80313;SDS011;69628;47.516;18.828;2024-02-26T02:52:04;16.70;;;8.65;;
80313;SDS011;69628;47.516;18.828;2024-02-26T02:53:05;17.10;;;8.40;;
80313;SDS011;69628;47.516;18.828;2024-02-26T02:54:05;19.55;;;8.80;;
80313;SDS011;69628;47.516;18.828;2024-02-26T02:55:06;18.42;;;9.15;;
80313;SDS011;69628;47.516;18.828;2024-02-26T02:56:06;12.07;;;7.03;;
80313;SDS011;69628;47.516;18.828;2024-02-26T02:57:07;16.88;;;8.57;;
80313;SDS011;69628;47.516;18.828;2024-02-26T02:58:08;20.15;;;9.25;;
80313;SDS011;69628;47.516;18.828;2024-02-26T02:59:08;18.88;;;8.20;;
80313;SDS011;69628;47.516;18.828;2024-02-26T03:00:09;18.13;;;8.98;;
80313;SDS011;69628;47.516;18.828;2024-02-26T03:01:10;19.65;;;8.73;;
80313;SDS011;69628;47.516;18.828;2024-02-26T03:02:10;16.02;;;8.40;;
80313;SDS011;69628;47.516;18.828;2024-02-26T03:03:10;18.88;;;8.23;;
80313;SDS011;69628;47.516;18.828;2024-02-26T03:04:11;15.90;;;7.97;;
80313;SDS011;69628;47.516;18.828;2024-02-26T03:05:12;17.85;;;8.98;;
80313;SDS011;69628;47.516;18.828;2024-02-26T03:06:12;15.25;;;7.47;;
80313;SDS011;69628;47.516;18.828;2024-02-26T03:07:13;12.90;;;7.20;;
80313;SDS011;69628;47.516;18.828;2024-02-26T03:08:13;14.43;;;6.95;;
80313;SDS011;69628;47.516;18.828;2024-02-26T03:09:13;14.43;;;7.10;;
80313;SDS011;69628;47.516;18.828;2024-02-26T03:10:14;14.48;;;7.05;;
80313;SDS011;69628;47.516;18.828;2024-02-26T03:11:14;13.73;;;7.78;;
80313;SDS011;69628;47.516;18.828;2024-02-26T03:12:15;17.55;;;7.50;;
80313;SDS011;69628;47.516;18.828;2024-02-26T03:13:15;10.82;;;6.07;;
80313;SDS011;69628;47.516;18.828;2024-02-26T03:14:16;14.07;;;7.32;;
80313;SDS011;69628;47.516;18.828;2024-02-26T03:15:16;19.42;;;7.32;;
80313;SDS011;69628;47.516;18.828;2024-02-26T03:16:17;14.07;;;7.60;;
80313;SDS011;69628;47.516;18.828;2024-02-26T03:17:17;13.93;;;7.55;;
80313;SDS011;69628;47.516;18.828;2024-02-26T03:18:18;17.45;;;7.22;;
80313;SDS011;69628;47.516;18.828;2024-02-26T03:19:18;16.88;;;7.82;;
80313;SDS011;69628;47.516;18.828;2024-02-26T03:20:18;12.95;;;6.97;;
80313;SDS011;69628;47.516;18.828;2024-02-26T03:21:19;12.55;;;6.68;;
80313;SDS011;69628;47.516;18.828;2024-02-26T03:22:19;17.25;;;7.80;;
80313;SDS011;69628;47.516;18.828;2024-02-26T03:23:20;15.57;;;6.90;;
80313;SDS011;69628;47.516;18.828;2024-02-26T03:24:21;15.98;;;8.05;;
80313;SDS011;69628;47.516;18.828;2024-02-26T03:25:21;26.33;;;8.55;;
80313;SDS011;69628;47.516;18.828;2024-02-26T03:26:21;15.05;;;7.95;;
80313;SDS011;69628;47.516;18.828;2024-02-26T03:27:22;11.85;;;6.22;;
80313;SDS011;69628;47.516;18.828;2024-02-26T03:28:22;11.98;;;6.38;;
80313;SDS011;69628;47.516;18.828;2024-02-26T03:29:22;11.65;;;6.22;;
80313;SDS011;69628;47.516;18.828;2024-02-26T03:30:23;18.05;;;6.20;;
80313;SDS011;69628;47.516;18.828;2024-02-26T03:31:23;13.18;;;6.07;;
80313;SDS011;69628;47.516;18.828;2024-02-26T03:32:24;12.48;;;6.07;;
80313;SDS011;69628;47.516;18.828;2024-02-26T03:33:24;15.07;;;6.82;;
80313;SDS011;69628;47.516;18.828;2024-02-26T03:34:25;15.77;;;6.65;;
80313;SDS011;69628;47.516;18.828;2024-02-26T03:35:26;11.43;;;6.28;;
80313;SDS011;69628;47.516;18.828;2024-02-26T03:36:27;9.48;;;5.38;;
80313;SDS011;69628;47.516;18.828;2024-02-26T03:37:27;10.35;;;5.68;;
80313;SDS011;69628;47.516;18.828;2024-02-26T03:38:28;9.10;;;5.15;;
80313;SDS011;69628;47.516;18.828;2024-02-26T03:39:29;9.77;;;5.40;;
80313;SDS011;69628;47.516;18.828;2024-02-26T03:40:29;10.30;;;5.55;;
80313;SDS011;69628;47.516;18.828;2024-02-26T03:41:29;16.52;;;5.95;;
80313;SDS011;69628;47.516;18.828;2024-02-26T03:42:32;13.90;;;6.25;;
80313;SDS011;69628;47.516;18.828;2024-02-26T03:43:32;11.77;;;6.55;;
80313;SDS011;69628;47.516;18.828;2024-02-26T03:44:32;11.95;;;5.55;;
80313;SDS011;69628;47.516;18.828;2024-02-26T03:45:33;14.82;;;5.50;;
80313;SDS011;69628;47.516;18.828;2024-02-26T03:46:33;7.97;;;4.72;;
80313;SDS011;69628;47.516;18.828;2024-02-26T03:47:33;9.85;;;5.72;;
80313;SDS011;69628;47.516;18.828;2024-02-26T03:48:34;9.85;;;5.15;;
80313;SDS011;69628;47.516;18.828;2024-02-26T03:49:35;8.77;;;4.32;;
80313;SDS011;69628;47.516;18.828;2024-02-26T03:50:35;6.65;;;4.05;;
80313;SDS011;69628;47.516;18.828;2024-02-26T03:51:35;8.82;;;4.68;;
80313;SDS011;69628;47.516;18.828;2024-02-26T03:52:37;9.60;;;4.90;;
80313;SDS011;69628;47.516;18.828;2024-02-26T03:53:37;9.77;;;5.53;;
80313;SDS011;69628;47.516;18.828;2024-02-26T03:54:38;10.85;;;4.72;;
80313;SDS011;69628;47.516;18.828;2024-02-26T03:55:38;12.20;;;5.47;;
80313;SDS011;69628;47.516;18.828;2024-02-26T03:56:39;9.82;;;4.47;;
80313;SDS011;69628;47.516;18.828;2024-02-26T03:57:39;7.25;;;4.18;;
80313;SDS011;69628;47.516;18.828;2024-02-26T03:58:40;8.05;;;4.00;;
80313;SDS011;69628;47.516;18.828;2024-02-26T03:59:40;8.70;;;4.57;;
80313;SDS011;69628;47.516;18.828;2024-02-26T04:00:42;6.57;;;3.78;;
80313;SDS011;69628;47.516;18.828;2024-02-26T04:01:45;10.38;;;4.35;;
80313;SDS011;69628;47.516;18.828;2024-02-26T04:02:47;11.23;;;4.72;;
80313;SDS011;69628;47.516;18.828;2024-02-26T04:03:47;8.48;;;4.38;;
80313;SDS011;69628;47.516;18.828;2024-02-26T04:04:48;8.18;;;4.38;;
80313;SDS011;69628;47.516;18.828;2024-02-26T04:05:48;13.52;;;5.38;;
80313;SDS011;69628;47.516;18.828;2024-02-26T04:06:49;10.48;;;5.30;;
80313;SDS011;69628;47.516;18.828;2024-02-26T04:07:49;7.97;;;4.35;;
80313;SDS011;69628;47.516;18.828;2024-02-26T04:08:50;8.13;;;4.88;;
80313;SDS011;69628;47.516;18.828;2024-02-26T04:09:50;9.60;;;4.90;;
80313;SDS011;69628;47.516;18.828;2024-02-26T04:10:50;15.32;;;5.60;;
80313;SDS011;69628;47.516;18.828;2024-02-26T04:11:51;8.93;;;4.25;;
80313;SDS011;69628;47.516;18.828;2024-02-26T04:12:51;6.10;;;3.75;;
80313;SDS011;69628;47.516;18.828;2024-02-26T04:13:52;7.70;;;4.45;;
80313;SDS011;69628;47.516;18.828;2024-02-26T04:14:52;8.15;;;4.32;;
80313;SDS011;69628;47.516;18.828;2024-02-26T04:15:52;7.95;;;4.13;;
80313;SDS011;69628;47.516;18.828;2024-02-26T04:16:53;7.05;;;4.60;;
80313;SDS011;69628;47.516;18.828;2024-02-26T04:17:54;9.45;;;4.22;;
80313;SDS011;69628;47.516;18.828;2024-02-26T04:18:54;7.90;;;4.10;;
80313;SDS011;69628;47.516;18.828;2024-02-26T04:19:55;6.90;;;3.70;;
80313;SDS011;69628;47.516;18.828;2024-02-26T04:20:55;7.50;;;4.25;;
80313;SDS011;69628;47.516;18.828;2024-02-26T04:21:56;6.95;;;4.28;;
80313;SDS011;69628;47.516;18.828;2024-02-26T04:22:57;6.75;;;3.70;;
80313;SDS011;69628;47.516;18.828;2024-02-26T04:23:57;7.85;;;3.53;;
80313;SDS011;69628;47.516;18.828;2024-02-26T04:25:00;8.90;;;3.97;;
80313;SDS011;69628;47.516;18.828;2024-02-26T04:26:01;5.03;;;3.63;;
80313;SDS011;69628;47.516;18.828;2024-02-26T04:27:01;6.47;;;3.40;;
80313;SDS011;69628;47.516;18.828;2024-02-26T04:28:01;6.32;;;3.67;;
80313;SDS011;69628;47.516;18.828;2024-02-26T04:29:02;5.53;;;3.58;;
80313;SDS011;69628;47.516;18.828;2024-02-26T04:30:02;7.53;;;3.72;;
80313;SDS011;69628;47.516;18.828;2024-02-26T04:31:04;5.10;;;3.55;;
80313;SDS011;69628;47.516;18.828;2024-02-26T04:32:04;8.18;;;4.25;;
80313;SDS011;69628;47.516;18.828;2024-02-26T04:33:05;8.50;;;4.35;;
80313;SDS011;69628;47.516;18.828;2024-02-26T04:34:06;9.52;;;4.53;;
80313;SDS011;69628;47.516;18.828;2024-02-26T04:35:06;10.13;;;3.92;;
80313;SDS011;69628;47.516;18.828;2024-02-26T04:36:11;7.00;;;4.13;;
80313;SDS011;69628;47.516;18.828;2024-02-26T04:37:13;8.63;;;3.90;;
80313;SDS011;69628;47.516;18.828;2024-02-26T04:38:13;7.00;;;4.10;;
80313;SDS011;69628;47.516;18.828;2024-02-26T04:39:13;6.63;;;4.10;;
80313;SDS011;69628;47.516;18.828;2024-02-26T04:40:14;7.80;;;4.32;;
80313;SDS011;69628;47.516;18.828;2024-02-26T04:41:14;8.05;;;4.20;;
80313;SDS011;69628;47.516;18.828;2024-02-26T04:42:15;8.75;;;4.25;;
80313;SDS011;69628;47.516;18.828;2024-02-26T04:43:15;7.65;;;4.13;;
80313;SDS011;69628;47.516;18.828;2024-02-26T04:44:17;7.43;;;4.45;;
80313;SDS011;69628;47.516;18.828;2024-02-26T04:45:18;7.78;;;4.70;;
80313;SDS011;69628;47.516;18.828;2024-02-26T04:46:18;8.27;;;3.97;;
80313;SDS011;69628;47.516;18.828;2024-02-26T04:47:18;13.35;;;5.28;;
80313;SDS011;69628;47.516;18.828;2024-02-26T04:48:19;7.35;;;4.28;;
80313;SDS011;69628;47.516;18.828;2024-02-26T04:49:19;10.23;;;4.18;;
80313;SDS011;69628;47.516;18.828;2024-02-26T04:50:19;8.95;;;4.32;;
80313;SDS011;69628;47.516;18.828;2024-02-26T04:51:20;7.78;;;3.65;;
80313;SDS011;69628;47.516;18.828;2024-02-26T04:52:21;7.90;;;4.18;;
80313;SDS011;69628;47.516;18.828;2024-02-26T04:53:21;7.68;;;4.13;;
80313;SDS011;69628;47.516;18.828;2024-02-26T04:54:22;7.55;;;4.03;;
80313;SDS011;69628;47.516;18.828;2024-02-26T04:55:22;5.72;;;3.55;;
80313;SDS011;69628;47.516;18.828;2024-02-26T04:56:22;8.23;;;5.10;;
80313;SDS011;69628;47.516;18.828;2024-02-26T04:57:23;6.82;;;4.20;;
80313;SDS011;69628;47.516;18.828;2024-02-26T04:58:23;8.85;;;4.50;;
80313;SDS011;69628;47.516;18.828;2024-02-26T04:59:24;9.35;;;4.32;;
80313;SDS011;69628;47.516;18.828;2024-02-26T05:00:24;7.22;;;3.45;;
80313;SDS011;69628;47.516;18.828;2024-02-26T05:01:24;9.90;;;3.85;;
80313;SDS011;69628;47.516;18.828;2024-02-26T05:02:25;8.00;;;3.92;;
80313;SDS011;69628;47.516;18.828;2024-02-26T05:03:25;5.53;;;3.63;;
80313;SDS011;69628;47.516;18.828;2024-02-26T05:04:26;6.82;;;4.13;;
80313;SDS011;69628;47.516;18.828;2024-02-26T05:05:26;6.70;;;3.33;;
80313;SDS011;69628;47.516;18.828;2024-02-26T05:06:26;12.57;;;4.32;;
80313;SDS011;69628;47.516;18.828;2024-02-26T05:07:27;5.00;;;3.28;;
80313;SDS011;69628;47.516;18.828;2024-02-26T05:08:27;7.22;;;3.63;;
80313;SDS011;69628;47.516;18.828;2024-02-26T05:09:29;6.82;;;3.63;;
80313;SDS011;69628;47.516;18.828;2024-02-26T05:10:29;5.78;;;3.40;;
80313;SDS011;69628;47.516;18.828;2024-02-26T05:11:30;8.65;;;4.18;;
80313;SDS011;69628;47.516;18.828;2024-02-26T05:12:31;5.25;;;3.58;;
80313;SDS011;69628;47.516;18.828;2024-02-26T05:13:32;7.43;;;4.05;;
80313;SDS011;69628;47.516;18.828;2024-02-26T05:14:32;8.32;;;3.70;;
80313;SDS011;69628;47.516;18.828;2024-02-26T05:15:32;7.22;;;3.80;;
80313;SDS011;69628;47.516;18.828;2024-02-26T05:16:33;5.45;;;3.78;;
80313;SDS011;69628;47.516;18.828;2024-02-26T05:17:33;6.40;;;3.95;;
80313;SDS011;69628;47.516;18.828;2024-02-26T05:18:33;7.57;;;3.75;;
80313;SDS011;69628;47.516;18.828;2024-02-26T05:19:34;7.15;;;3.40;;
80313;SDS011;69628;47.516;18.828;2024-02-26T05:20:34;6.40;;;3.40;;
80313;SDS011;69628;47.516;18.828;2024-02-26T05:21:38;7.40;;;3.28;;
80313;SDS011;69628;47.516;18.828;2024-02-26T05:22:38;7.18;;;3.72;;
80313;SDS011;69628;47.516;18.828;2024-02-26T05:23:38;6.28;;;3.28;;
80313;SDS011;69628;47.516;18.828;2024-02-26T05:24:39;6.15;;;3.75;;
80313;SDS011;69628;47.516;18.828;2024-02-26T05:25:39;7.75;;;3.97;;
80313;SDS011;69628;47.516;18.828;2024-02-26T05:26:41;9.05;;;4.80;;
80313;SDS011;69628;47.516;18.828;2024-02-26T05:27:42;9.20;;;3.72;;
80313;SDS011;69628;47.516;18.828;2024-02-26T05:28:43;5.35;;;2.97;;
80313;SDS011;69628;47.516;18.828;2024-02-26T05:29:44;9.05;;;4.72;;
80313;SDS011;69628;47.516;18.828;2024-02-26T05:30:44;5.65;;;3.47;;
80313;SDS011;69628;47.516;18.828;2024-02-26T05:31:44;7.57;;;3.83;;
80313;SDS011;69628;47.516;18.828;2024-02-26T05:32:45;5.38;;;3.08;;
80313;SDS011;69628;47.516;18.828;2024-02-26T05:33:45;12.25;;;3.85;;
80313;SDS011;69628;47.516;18.828;2024-02-26T05:34:46;9.85;;;4.03;;
80313;SDS011;69628;47.516;18.828;2024-02-26T05:35:46;8.18;;;3.88;;
80313;SDS011;69628;47.516;18.828;2024-02-26T05:36:47;6.05;;;2.92;;
80313;SDS011;69628;47.516;18.828;2024-02-26T05:37:47;6.65;;;3.70;;
80313;SDS011;69628;47.516;18.828;2024-02-26T05:38:48;6.53;;;3.70;;
80313;SDS011;69628;47.516;18.828;2024-02-26T05:39:48;8.48;;;3.83;;
80313;SDS011;69628;47.516;18.828;2024-02-26T05:40:49;7.30;;;4.20;;
80313;SDS011;69628;47.516;18.828;2024-02-26T05:41:52;7.32;;;4.15;;
80313;SDS011;69628;47.516;18.828;2024-02-26T05:42:52;8.30;;;3.95;;
80313;SDS011;69628;47.516;18.828;2024-02-26T05:43:53;5.40;;;3.63;;
80313;SDS011;69628;47.516;18.828;2024-02-26T05:44:53;7.90;;;4.53;;
80313;SDS011;69628;47.516;18.828;2024-02-26T05:45:54;6.05;;;3.30;;
80313;SDS011;69628;47.516;18.828;2024-02-26T05:46:54;11.13;;;3.25;;
80313;SDS011;69628;47.516;18.828;2024-02-26T05:47:54;7.85;;;3.92;;
80313;SDS011;69628;47.516;18.828;2024-02-26T05:48:55;7.03;;;3.53;;
80313;SDS011;69628;47.516;18.828;2024-02-26T05:49:55;5.50;;;3.60;;
80313;SDS011;69628;47.516;18.828;2024-02-26T05:50:58;15.70;;;5.22;;
80313;SDS011;69628;47.516;18.828;2024-02-26T05:51:59;9.05;;;3.92;;
80313;SDS011;69628;47.516;18.828;2024-02-26T05:52:59;6.25;;;4.03;;
80313;SDS011;69628;47.516;18.828;2024-02-26T05:54:00;11.32;;;3.80;;
80313;SDS011;69628;47.516;18.828;2024-02-26T05:55:00;8.65;;;4.45;;
80313;SDS011;69628;47.516;18.828;2024-02-26T05:56:01;6.57;;;3.40;;
80313;SDS011;69628;47.516;18.828;2024-02-26T05:57:01;5.15;;;2.70;;